Gent, Belgium

8:56 AM CET on February 10, 2016 (GMT +0100)
Brussels National | | Change Station
CLOSE
Current Station
Airport
Location: Brussels,
Elevation: 190 ft
Nearby Weather Stations

Elev 190 ft 50.90 °N, 4.53 °E | Updated 6 minutes ago

Light Rain
Light Rain Drizzle
39 °F
Feels Like 30 °F
N
17
Wind Variable Wind from WSW

Today
High -- | Low -- °F
--% Chance of Precip.
Yesterday
High -- | Low -- °F
Precip. -- in
Pressure 29.30 in
Visibility 6.2 miles
Clouds Scattered Clouds 1000 ft
Mostly Cloudy 1700 ft
Windchill 30 °F
Dew Point 36 °F
Humidity 87%
Rainfall 0.00 in
Snow Depth Not available.
8:08 AM 5:51 PM
Waxing Crescent, 4% visible
METAR EBBR 100750Z 24015KT 9999 -RADZ SCT010 BKN017 04/02 Q0992 TEMPO 23016G26KT
Pressure 29.30 in
Visibility 6.2 miles
Clouds Scattered Clouds 1000 ft
Mostly Cloudy 1700 ft
Windchill 30 °F
Dew Point 36 °F
Humidity 87%
Rainfall 0.00 in
Snow Depth Not available.
8:08 AM 5:51 PM
Waxing Crescent, 4% visible
METAR EBBR 100750Z 24015KT 9999 -RADZ SCT010 BKN017 04/02 Q0992 TEMPO 23016G26KT

10-Day Weather Forecast

Almanac

Astronomy

Feb. 10, 2016 Rise Set
Actual Time
Civil Twilight
Nautical Twilight
Astronomical Twilight
Moon
Length of Visible Light
Length of Day
Tomorrow will be .
, % of the Moon is Illuminated

Today's Extremes

Country Highs Country Lows

Community

WunderPhotos

Upload Photos

1,891,826 photos uploaded!

WunderBlog® & News

Nearby

Air Quality

  Air Quality AQ Index Pollutant
Not available.

Snow Depth

Station Depth Elevation

Earthquake Activity

City Distance Mag. Time & Date
Minimum magnitude displayed is 2.5.

Coastal Water Temperatures

Place Temperature

Stations

Nearby Weather Stations

Station Location Temp. Windchill Dew Point Humidity Wind Precip. Elev Updated Type